Don's Testing Zone


Current Conditions
weather data
source:

National Weather Service
Clear Searcy, AR
Clear, 43°F
Sunday, February 25, 2018 8:56 PM CST
Temperature: 43°F/6°C
Humidity: 87%
Barometer: 30.13in/1021.5mb Barometer Steady
Wind: CALM at 0mph/0kmh
View other cities:
Searcy | Little Rock | Hot Springs | Russellville | More...
Astronomical Conditions (Clear Sky Clock)
Searcy Clear Sky Clock
Find more weather in Little Rock, AR
    

Radar Images

NWS
    Wx Underground

KARK
   

NWS METAR weather data

ADDS - METARS form results





Aviation Digital Data Service (ADDS) Output produced by METARs form (0310 UTC 26 February 2018) found at http://aviationweather.gov/adds/metars/ 

KSRC 260256Z AUTO 00000KT 10SM CLR 06/04 A3013 RMK AO2 SLP215 6//// T0056003953014

KSRC 260156Z AUTO 00000KT 10SM CLR 08/03 A3012 RMK AO2 SLP209 T00780033

KSRC 260056Z AUTO 06004KT 10SM CLR 09/03 A3011 RMK AO2 SLP205 T00890028

KSRC 252356Z AUTO 06006KT 10SM CLR 09/03 A3009 RMK AO2 SLP200 6//// T0094002810117 20094 55010 TSNO

KSRC 252256Z AUTO 08006KT 10SM CLR 11/03 A3009 RMK AO2 SLP198 T01060028

KSRC 252156Z AUTO 07005KT 10SM CLR 11/03 A3011 RMK AO2 SLP205 T01110033

KSRC 252056Z AUTO VRB03KT 10SM CLR 12/04 A3012 RMK AO2 SLP211 T01170039 56007

KSRC 251956Z AUTO 10004KT 10SM CLR 11/03 A3013 RMK AO2 SLP214 T01110028

KSRC 251856Z AUTO 07006KT 10SM CLR 11/01 A3013 RMK AO2 SLP212 T01110011

KSRC 251756Z AUTO 04009KT 10SM CLR 11/01 A3014 RMK AO2 SLP217 6//// T0111000610111 20033 58004

KSRC 251656Z AUTO 05007KT 10SM CLR 09/02 A3016 RMK AO2 SLP225 T00940017

KSRC 251556Z AUTO 04007KT 10SM CLR 09/03 A3016 RMK AO2 SLP223 T00940028

KSRC 251456Z AUTO 10SM CLR 07/04 A3015 RMK AO2 SLP221 6//// T00720044 51013

KSRC 251356Z AUTO 00000KT 10SM CLR 05/05 A3015 RMK AO2 SLP221 T00500050

KSRC 251256Z AUTO 00000KT 10SM CLR 03/03 A3012 RMK AO2 SLP212 T00330033

KSRC 251156Z AUTO 00000KT 10SM CLR 04/04 A3011 RMK AO2 SLP208 6//// 7////T00440039 10111 20044 53020

KSRC 251056Z AUTO 03003KT 10SM CLR 06/02 A3009 RMK AO2 SLP199 T00560022

KSRC 250956Z AUTO 00000KT 10SM CLR 07/02 A3006 RMK AO2 SLP188 T00670022

KSRC 250856Z AUTO 34007KT 10SM CLR 08/03 A3005 RMK AO2 SLP187 6//// T0078002851026

KSRC 250756Z AUTO 33007KT 10SM CLR 09/06 A3005 RMK AO2 SLP183 T00940056

KSRC 250656Z AUTO 30006KT 10SM CLR 11/09 A3001 RMK AO2 SLP173 T01060089

KSRC 250556Z AUTO 27005KT 10SM CLR 11/09 A2998 RMK AO2 SLP160 6//// T0111009410167 20111 51032

KSRC 250456Z AUTO 26008KT 10SM SCT110 12/11 A2995 RMK AO2 SLP152 T01220106402110106

KSRC 250356Z AUTO 26013G18KT 10SM OVC110 13/11 A2992 RMK AO2 SLP140 T01280106

KSRC 250312Z AUTO 26011G16KT 10SM SCT014 OVC110 14/14 A2989 RMK AO2